Time;durP1;ratioP1;P1;durP2;ratioP2;P2;SDS_P1;SDS_P2;PMS_P1;PMS_P2;Temp;Humidity;BMP_temperature;BMP_pressure;BME280_temperature;BME280_humidity;BME280_pressure;Samples;Min_cycle;Max_cycle;Signal;HPM_P1;HPM_P2
2022/12/01 00:00:34;;;;;;;65.00;26.23;;;;;;;2.96;100.00;102718.34;5029638;28;20146;-69
2022/12/01 00:03:00;;;;;;;60.30;23.75;;;;;;;2.93;100.00;102720.72;5024237;28;20090;-69
2022/12/01 00:05:25;;;;;;;65.05;24.13;;;;;;;2.90;100.00;102711.75;5021998;28;20033;-69
2022/12/01 00:07:51;;;;;;;60.55;24.35;;;;;;;2.94;100.00;102719.91;5013814;28;20358;-69
2022/12/01 00:10:25;;;;;;;61.53;25.98;;;;;;;2.87;100.00;102720.22;5020998;28;20026;-68
2022/12/01 00:13:02;;;;;;;62.47;26.27;;;;;;;2.85;100.00;102720.09;5030550;28;20385;-69
2022/12/01 00:15:30;;;;;;;79.10;26.33;;;;;;;2.86;100.00;102718.41;5029362;28;20040;-69
2022/12/01 00:17:57;;;;;;;62.80;26.70;;;;;;;2.87;100.00;102721.09;5024317;28;20172;-69
2022/12/01 00:20:23;;;;;;;67.95;27.30;;;;;;;2.90;100.00;102720.44;5015994;28;20123;-70
2022/12/01 00:22:49;;;;;;;79.63;29.00;;;;;;;2.90;100.00;102723.03;5017580;28;20181;-68
2022/12/01 00:25:16;;;;;;;77.60;28.13;;;;;;;2.92;100.00;102721.50;5015199;28;20057;-70
2022/12/01 00:27:42;;;;;;;65.38;25.80;;;;;;;2.88;100.00;102716.84;5021564;28;20095;-68
2022/12/01 00:30:10;;;;;;;73.88;27.50;;;;;;;2.89;100.00;102718.66;5022150;28;20470;-68
2022/12/01 00:32:36;;;;;;;71.78;28.02;;;;;;;2.89;100.00;102717.72;5015697;28;20478;-68
2022/12/01 00:35:04;;;;;;;64.07;26.73;;;;;;;2.91;100.00;102716.16;5012163;28;20029;-69
2022/12/01 00:37:30;;;;;;;79.15;28.00;;;;;;;2.89;100.00;102721.25;5024733;28;20115;-69
2022/12/01 00:39:57;;;;;;;67.97;27.52;;;;;;;2.90;100.00;102719.56;5031269;28;20029;-71
2022/12/01 00:42:22;;;;;;;73.65;26.27;;;;;;;2.87;100.00;102718.50;5011558;28;20036;-69
2022/12/01 00:44:47;;;;;;;80.22;28.42;;;;;;;2.83;100.00;102712.97;5013786;28;20381;-68
2022/12/01 00:47:13;;;;;;;75.63;26.98;;;;;;;2.82;100.00;102721.53;5020802;28;20572;-68
2022/12/01 00:49:38;;;;;;;78.28;28.20;;;;;;;2.77;100.00;102730.66;5013864;28;20021;-69
2022/12/01 00:52:04;;;;;;;74.95;28.17;;;;;;;2.77;100.00;102726.41;5022098;28;20120;-69
2022/12/01 00:54:32;;;;;;;86.15;30.17;;;;;;;2.80;100.00;102713.63;5024101;28;20035;-68
2022/12/01 00:56:59;;;;;;;80.20;29.92;;;;;;;2.84;100.00;102725.19;5014351;28;20347;-69
2022/12/01 00:59:24;;;;;;;74.28;27.08;;;;;;;2.86;100.00;102724.53;5017540;28;20029;-70
2022/12/01 01:01:50;;;;;;;87.70;31.50;;;;;;;2.90;100.00;102730.84;5025967;28;20095;-69
2022/12/01 01:04:15;;;;;;;83.32;28.83;;;;;;;2.95;100.00;102732.13;5011829;28;20497;-69
2022/12/01 01:06:44;;;;;;;77.47;28.92;;;;;;;2.96;100.00;102740.84;5014500;28;20058;-69
2022/12/01 01:09:11;;;;;;;104.75;33.15;;;;;;;2.99;100.00;102736.78;5022779;28;20033;-68
2022/12/01 01:11:36;;;;;;;88.38;30.83;;;;;;;3.02;100.00;102729.19;5016272;28;20022;-69
2022/12/01 01:14:02;;;;;;;90.18;34.03;;;;;;;3.11;100.00;102735.94;5013677;28;20018;-68
2022/12/01 01:16:28;;;;;;;101.97;31.80;;;;;;;3.13;100.00;102734.34;5023586;28;20033;-68
2022/12/01 01:18:54;;;;;;;88.53;30.55;;;;;;;3.15;100.00;102730.19;5015094;28;20389;-68
2022/12/01 01:21:20;;;;;;;100.82;33.00;;;;;;;3.18;100.00;102733.91;5019589;28;20291;-68
2022/12/01 01:23:47;;;;;;;93.78;33.67;;;;;;;3.24;100.00;102741.25;5017700;28;20076;-68
2022/12/01 01:26:16;;;;;;;107.60;32.80;;;;;;;3.28;100.00;102742.41;5019163;28;20043;-68
2022/12/01 01:28:41;;;;;;;110.72;35.45;;;;;;;3.33;100.00;102739.38;5019862;28;20541;-69
2022/12/01 01:31:10;;;;;;;106.15;34.47;;;;;;;3.38;100.00;102743.25;5011825;28;20034;-69
2022/12/01 01:33:35;;;;;;;102.53;33.22;;;;;;;3.41;100.00;102746.88;5020413;28;20087;-69
2022/12/01 01:36:02;;;;;;;103.43;32.97;;;;;;;3.44;100.00;102749.72;5020091;28;20038;-70
2022/12/01 01:38:28;;;;;;;113.93;35.22;;;;;;;3.47;100.00;102749.94;5018010;28;20037;-68
2022/12/01 01:40:54;;;;;;;114.20;34.78;;;;;;;3.49;100.00;102756.19;5020770;28;20026;-68
2022/12/01 01:43:44;;;;;;;110.65;35.40;;;;;;;3.55;100.00;102756.63;5011904;28;20543;-68
2022/12/01 01:46:18;;;;;;;94.05;33.33;;;;;;;3.58;100.00;102758.56;5023346;28;20028;-69
2022/12/01 01:48:49;;;;;;;101.07;35.35;;;;;;;3.60;100.00;102754.41;5020219;28;20065;-69
2022/12/01 01:51:19;;;;;;;113.00;34.83;;;;;;;3.64;100.00;102749.53;5025403;28;20029;-68
2022/12/01 01:53:46;;;;;;;110.75;35.05;;;;;;;3.66;100.00;102755.78;5027845;28;20029;-68
2022/12/01 01:56:12;;;;;;;111.47;34.28;;;;;;;3.68;100.00;102759.38;5020353;28;20045;-68
2022/12/01 01:58:39;;;;;;;119.05;35.78;;;;;;;3.70;100.00;102767.31;5016313;28;20025;-68
2022/12/01 02:01:05;;;;;;;114.00;36.05;;;;;;;3.71;100.00;102751.78;5013728;28;20069;-69
2022/12/01 02:03:32;;;;;;;125.95;36.50;;;;;;;3.72;100.00;102751.00;5018913;28;20045;-68
2022/12/01 02:05:57;;;;;;;111.28;35.80;;;;;;;3.74;100.00;102752.81;5010629;28;20052;-68
2022/12/01 02:08:23;;;;;;;110.80;35.97;;;;;;;3.71;100.00;102751.78;5015129;28;20462;-69
2022/12/01 02:11:20;;;;;;;115.75;36.00;;;;;;;3.71;100.00;102743.09;5022131;28;20026;-69
2022/12/01 02:14:04;;;;;;;117.95;35.17;;;;;;;3.69;100.00;102744.66;5001368;28;20046;-68
2022/12/01 02:16:35;;;;;;;;;;;;;;;3.66;100.00;102734.94;5025264;28;20029;-68
2022/12/01 02:19:19;;;;;;;117.30;34.63;;;;;;;3.65;100.00;102737.41;5012620;28;19914;-68
2022/12/01 02:22:03;;;;;;;108.35;34.55;;;;;;;3.60;100.00;102733.56;5023764;28;20036;-67
2022/12/01 02:25:06;;;;;;;109.07;34.40;;;;;;;3.53;100.00;102737.41;5011562;28;20030;-69
2022/12/01 02:28:05;;;;;;;108.88;32.17;;;;;;;3.47;100.00;102736.94;5015371;28;20030;-67
2022/12/01 02:30:44;;;;;;;112.97;33.45;;;;;;;3.42;100.00;102727.84;5010039;28;20525;-69
2022/12/01 02:33:15;;;;;;;104.82;33.33;;;;;;;3.34;100.00;102736.00;5010164;28;20121;-67
2022/12/01 02:35:48;;;;;;;95.25;32.83;;;;;;;3.22;100.00;102735.06;5013692;28;20049;-68
2022/12/01 02:38:32;;;;;;;95.82;31.73;;;;;;;3.16;100.00;102730.28;5014437;28;20030;-69
2022/12/01 02:41:09;;;;;;;;;;;;;;;3.13;100.00;102731.75;5013801;28;20022;-70
2022/12/01 02:43:47;;;;;;;97.28;30.52;;;;;;;3.03;100.00;102733.63;5024566;28;19912;-69
2022/12/01 02:46:31;;;;;;;107.90;33.33;;;;;;;3.02;100.00;102726.59;5014958;28;20030;-69
2022/12/01 02:49:00;;;;;;;99.75;33.42;;;;;;;3.01;100.00;102737.81;5017557;28;20417;-68
2022/12/01 02:51:30;;;;;;;106.40;34.35;;;;;;;3.04;100.00;102735.44;5023472;28;20064;-70
2022/12/01 02:54:00;;;;;;;114.57;33.67;;;;;;;3.06;100.00;102729.47;5024317;28;20428;-69
2022/12/01 02:56:26;;;;;;;116.85;35.10;;;;;;;3.03;100.00;102728.41;5026678;28;20104;-68
2022/12/01 02:58:51;;;;;;;102.05;35.58;;;;;;;3.07;100.00;102736.47;5015018;28;20123;-67
2022/12/01 03:01:40;;;;;;;106.47;34.95;;;;;;;3.09;100.00;102727.09;5011528;28;20125;-70
2022/12/01 03:04:28;;;;;;;113.45;34.03;;;;;;;3.12;100.00;102732.53;5021394;28;20052;-68
2022/12/01 03:07:32;;;;;;;103.43;33.65;;;;;;;3.09;100.00;102733.19;5014313;28;20477;-68
2022/12/01 03:10:09;;;;;;;101.80;33.92;;;;;;;3.11;100.00;102736.81;5014336;28;20104;-68
2022/12/01 03:12:53;;;;;;;110.90;34.20;;;;;;;3.04;100.00;102729.34;5027340;28;20545;-70
2022/12/01 03:15:44;;;;;;;100.68;33.15;;;;;;;2.94;100.00;102732.91;5027723;28;20359;-69
2022/12/01 03:18:12;;;;;;;109.47;33.20;;;;;;;2.91;100.00;102732.66;5027991;28;20033;-69
2022/12/01 03:20:49;;;;;;;97.40;31.13;;;;;;;2.86;100.00;102739.19;5025188;28;20492;-68
2022/12/01 03:23:19;;;;;;;92.05;30.40;;;;;;;2.75;100.00;102742.66;5030270;28;20025;-68
2022/12/01 03:25:49;;;;;;;102.35;33.45;;;;;;;2.73;100.00;102736.41;5014241;28;20030;-68
2022/12/01 03:28:19;;;;;;;93.13;32.05;;;;;;;2.68;100.00;102728.25;5022534;28;20466;-69
2022/12/01 03:30:48;;;;;;;89.40;30.67;;;;;;;2.58;100.00;102729.22;5012711;28;20113;-68
2022/12/01 03:33:45;;;;;;;100.50;29.60;;;;;;;2.57;100.00;102732.59;5014174;28;20025;-68
2022/12/01 03:36:36;;;;;;;90.88;29.85;;;;;;;2.45;100.00;102734.22;5020679;28;20091;-69
2022/12/01 03:39:07;;;;;;;93.45;29.83;;;;;;;2.45;100.00;102734.22;5021753;28;20571;-68
2022/12/01 03:41:40;;;;;;;90.60;31.38;;;;;;;2.45;100.00;102729.03;5020213;28;20097;-69
2022/12/01 03:44:13;;;;;;;102.57;31.35;;;;;;;2.41;100.00;102734.78;5017085;28;20088;-68
2022/12/01 03:46:49;;;;;;;91.22;31.17;;;;;;;2.39;100.00;102728.53;5016110;28;20057;-68
2022/12/01 03:49:16;;;;;;;84.43;29.75;;;;;;;2.32;100.00;102730.66;5013261;28;20036;-69
2022/12/01 03:52:12;;;;;;;100.18;31.23;;;;;;;2.32;100.00;102727.13;5020794;28;20116;-68
2022/12/01 03:54:38;;;;;;;96.65;31.30;;;;;;;2.37;100.00;102731.00;5031503;28;20041;-69
2022/12/01 03:57:09;;;;;;;99.72;32.03;;;;;;;2.35;100.00;102730.88;5032396;28;20026;-68
2022/12/01 03:59:37;;;;;;;110.90;32.42;;;;;;;2.35;100.00;102727.41;5023198;28;20046;-68
2022/12/01 04:02:05;;;;;;;98.28;32.83;;;;;;;2.35;100.00;102736.09;5017388;28;20030;-68
2022/12/01 04:04:30;;;;;;;94.10;30.52;;;;;;;2.28;100.00;102731.19;5012317;28;20104;-69
2022/12/01 04:06:56;;;;;;;85.95;30.23;;;;;;;2.23;100.00;102739.41;5015033;28;20120;-70
2022/12/01 04:09:21;;;;;;;106.55;32.95;;;;;;;2.24;100.00;102741.19;5018831;28;20091;-69
2022/12/01 04:14:30;;;;;;;96.18;32.65;;;;;;;2.26;100.00;102742.22;5017606;28;20061;-68
2022/12/01 04:16:56;;;;;;;87.75;29.63;;;;;;;2.22;100.00;102740.19;5020576;28;20021;-69
2022/12/01 04:19:22;;;;;;;95.22;31.00;;;;;;;2.18;100.00;102736.41;5018893;28;20034;-69
2022/12/01 04:21:47;;;;;;;84.88;28.98;;;;;;;2.13;100.00;102741.25;5031553;28;20021;-69
2022/12/01 04:24:12;;;;;;;95.10;32.20;;;;;;;2.13;100.00;102737.72;5017662;28;20057;-68
2022/12/01 04:26:38;;;;;;;84.05;29.55;;;;;;;2.14;100.00;102736.94;5012568;28;20021;-68
2022/12/01 04:29:07;;;;;;;83.65;28.42;;;;;;;2.13;100.00;102740.31;5012826;28;20501;-69
2022/12/01 04:31:32;;;;;;;90.78;30.55;;;;;;;2.10;100.00;102740.06;5028693;28;20021;-69
2022/12/01 04:33:58;;;;;;;90.38;29.80;;;;;;;2.10;100.00;102746.16;5014634;28;20505;-68
2022/12/01 04:36:24;;;;;;;88.68;29.63;;;;;;;2.08;100.00;102744.25;5020542;28;20104;-69
2022/12/01 04:38:50;;;;;;;89.53;28.58;;;;;;;2.07;100.00;102745.03;5019491;28;20055;-68
2022/12/01 04:41:15;;;;;;;92.00;29.25;;;;;;;2.13;100.00;102748.09;5028896;28;20120;-69
2022/12/01 04:43:41;;;;;;;97.40;30.95;;;;;;;2.14;100.00;102745.66;5022402;28;20845;-69
2022/12/01 04:46:07;;;;;;;95.75;28.45;;;;;;;2.16;100.00;102748.38;5013122;28;20033;-70
2022/12/01 04:48:36;;;;;;;118.60;31.17;;;;;;;2.22;100.00;102746.25;5019190;28;20037;-70
2022/12/01 04:51:03;;;;;;;81.15;29.33;;;;;;;2.25;100.00;102743.00;5021018;28;20561;-69
2022/12/01 04:53:28;;;;;;;104.07;29.50;;;;;;;2.20;100.00;102737.47;5012897;28;20105;-67
2022/12/01 04:55:54;;;;;;;92.30;29.23;;;;;;;2.23;100.00;102740.28;5014718;28;20168;-69
2022/12/01 04:58:19;;;;;;;91.22;27.70;;;;;;;2.29;100.00;102738.22;5019399;28;20029;-68
2022/12/01 05:00:44;;;;;;;91.10;29.25;;;;;;;2.31;100.00;102733.13;5016251;28;20549;-70
2022/12/01 05:03:10;;;;;;;97.13;30.63;;;;;;;2.41;100.00;102737.38;5015650;28;20370;-69
2022/12/01 05:05:35;;;;;;;107.75;31.45;;;;;;;2.46;100.00;102736.94;5028791;28;20454;-69
2022/12/01 05:08:01;;;;;;;91.15;29.42;;;;;;;2.49;100.00;102741.47;5016330;28;20163;-70
2022/12/01 05:10:26;;;;;;;89.18;30.55;;;;;;;2.49;100.00;102733.69;5018851;28;20474;-69
2022/12/01 05:12:52;;;;;;;93.15;31.20;;;;;;;2.57;100.00;102739.50;5016964;28;20122;-69
2022/12/01 05:15:17;;;;;;;102.38;32.78;;;;;;;2.66;100.00;102740.25;5014918;28;20018;-69
2022/12/01 05:17:43;;;;;;;95.85;31.45;;;;;;;2.79;100.00;102737.81;5012083;28;20026;-69
2022/12/01 05:23:03;;;;;;;;;;;;;;;2.73;100.00;102745.13;5022849;28;20037;-68
2022/12/01 05:25:28;;;;;;;99.65;28.88;;;;;;;2.72;100.00;102751.13;5025436;28;20265;-70
2022/12/01 05:27:53;;;;;;;94.18;28.80;;;;;;;2.73;100.00;102741.59;5029833;28;20026;-68
2022/12/01 05:30:19;;;;;;;83.57;27.73;;;;;;;2.72;100.00;102745.91;5014537;28;20121;-70
2022/12/01 05:32:44;;;;;;;85.63;29.70;;;;;;;2.67;100.00;102750.75;5016829;28;20104;-70
2022/12/01 05:35:10;;;;;;;95.32;29.15;;;;;;;2.60;100.00;102756.22;5024864;28;20546;-69
2022/12/01 05:37:35;;;;;;;84.07;27.50;;;;;;;2.55;100.00;102757.59;5023990;28;20104;-69
2022/12/01 05:40:01;;;;;;;75.03;27.00;;;;;;;2.49;100.00;102746.69;5011965;28;20029;-69
2022/12/01 05:42:26;;;;;;;80.05;28.00;;;;;;;2.45;100.00;102744.63;5041312;28;20034;-69
2022/12/01 05:44:51;;;;;;;74.25;26.73;;;;;;;2.38;100.00;102747.53;5018749;28;20029;-67
2022/12/01 05:47:17;;;;;;;84.05;27.13;;;;;;;2.31;100.00;102762.59;5011717;28;20112;-70
2022/12/01 05:49:42;;;;;;;87.20;27.85;;;;;;;2.27;100.00;102765.72;5011529;28;20030;-69
2022/12/01 05:52:07;;;;;;;79.95;28.15;;;;;;;2.30;100.00;102765.97;5011071;28;20033;-68
2022/12/01 05:54:33;;;;;;;95.22;30.10;;;;;;;2.38;100.00;102764.00;5011375;28;20036;-68
2022/12/01 05:56:58;;;;;;;102.40;30.33;;;;;;;2.45;100.00;102757.63;5011248;28;20118;-70
2022/12/01 05:59:23;;;;;;;97.57;31.45;;;;;;;2.51;100.00;102760.72;5010130;28;20116;-69
2022/12/01 06:01:49;;;;;;;101.63;31.23;;;;;;;2.55;100.00;102761.84;5011639;28;20073;-68
2022/12/01 06:04:14;;;;;;;97.50;30.15;;;;;;;2.63;100.00;102765.97;5010037;28;20029;-69
2022/12/01 06:06:39;;;;;;;84.45;27.13;;;;;;;2.65;100.00;102765.31;5028808;28;20033;-68
2022/12/01 06:09:05;;;;;;;86.75;29.58;;;;;;;2.65;100.00;102770.50;5015550;28;20022;-69
2022/12/01 06:11:30;;;;;;;94.28;29.25;;;;;;;2.68;100.00;102768.16;5026492;28;20548;-70
2022/12/01 06:13:56;;;;;;;101.03;29.15;;;;;;;2.70;100.00;102769.19;5016280;28;20033;-68
2022/12/01 06:16:21;;;;;;;94.53;30.50;;;;;;;2.69;100.00;102774.28;5014496;28;20037;-69
2022/12/01 06:18:46;;;;;;;100.30;30.75;;;;;;;2.66;100.00;102767.13;5012762;28;20560;-69
2022/12/01 06:21:12;;;;;;;91.95;29.63;;;;;;;2.66;100.00;102766.25;5012287;28;20164;-69
2022/12/01 06:23:37;;;;;;;99.30;29.38;;;;;;;2.65;100.00;102764.41;5012650;28;20504;-70
2022/12/01 06:26:02;;;;;;;102.72;31.42;;;;;;;2.64;100.00;102760.88;5014529;28;20037;-68
2022/12/01 06:28:28;;;;;;;101.85;29.98;;;;;;;2.64;100.00;102773.00;5012037;28;20025;-69
2022/12/01 06:30:53;;;;;;;101.18;31.02;;;;;;;2.63;100.00;102766.91;5011413;28;20032;-68
2022/12/01 06:33:18;;;;;;;93.18;29.40;;;;;;;2.65;100.00;102774.81;5012504;28;20072;-70
2022/12/01 06:35:44;;;;;;;121.75;35.65;;;;;;;2.66;100.00;102780.13;5013897;28;20032;-69
2022/12/01 06:38:09;;;;;;;114.32;31.13;;;;;;;2.66;100.00;102780.13;5011800;28;20389;-71
2022/12/01 06:40:34;;;;;;;104.70;31.25;;;;;;;2.67;100.00;102779.34;5019931;28;20034;-69
2022/12/01 06:43:03;;;;;;;105.03;33.17;;;;;;;2.70;100.00;102773.50;5018434;28;20096;-70
2022/12/01 06:45:30;;;;;;;119.88;33.80;;;;;;;2.74;100.00;102774.63;5018451;28;20040;-69
2022/12/01 06:47:56;;;;;;;116.00;33.33;;;;;;;2.75;100.00;102784.25;5020728;28;20025;-70
2022/12/01 06:50:22;;;;;;;114.63;33.47;;;;;;;2.76;100.00;102783.47;5034394;28;20029;-69
2022/12/01 06:52:48;;;;;;;109.45;34.33;;;;;;;2.75;100.00;102779.94;5033595;28;20025;-69
2022/12/01 06:55:13;;;;;;;109.13;33.03;;;;;;;2.77;100.00;102782.66;5021779;28;20528;-71
2022/12/01 06:57:39;;;;;;;104.38;33.60;;;;;;;2.77;100.00;102786.19;5015504;28;20118;-69
2022/12/01 07:00:07;;;;;;;109.70;32.60;;;;;;;2.78;100.00;102785.41;5025936;28;20187;-70
2022/12/01 07:02:33;;;;;;;114.82;35.05;;;;;;;2.82;100.00;102786.53;5038341;28;20080;-70
2022/12/01 07:04:58;;;;;;;125.85;34.05;;;;;;;2.81;100.00;102783.03;5040275;28;20049;-70
2022/12/01 07:07:24;;;;;;;113.30;33.63;;;;;;;2.83;100.00;102788.38;5042051;28;20479;-70
2022/12/01 07:09:49;;;;;;;118.13;35.58;;;;;;;2.82;100.00;102781.34;5040736;28;20031;-69
2022/12/01 07:12:14;;;;;;;124.22;35.60;;;;;;;2.84;100.00;102787.59;5043115;28;20099;-69
2022/12/01 07:14:41;;;;;;;116.18;34.17;;;;;;;2.84;100.00;102792.78;5039163;28;20025;-68
2022/12/01 07:17:08;;;;;;;115.72;34.90;;;;;;;2.84;100.00;102784.97;5024305;28;20044;-69
2022/12/01 07:19:33;;;;;;;118.30;35.35;;;;;;;2.83;100.00;102788.38;5025033;28;20571;-70
2022/12/01 07:21:58;;;;;;;113.28;33.38;;;;;;;2.85;100.00;102785.09;5023006;28;20025;-69
2022/12/01 07:24:23;;;;;;;113.97;33.95;;;;;;;2.86;100.00;102796.41;5039148;28;20037;-69
2022/12/01 07:26:49;;;;;;;116.68;34.17;;;;;;;2.83;100.00;102798.75;5033374;28;20057;-69
2022/12/01 07:29:14;;;;;;;105.68;32.05;;;;;;;2.82;100.00;102804.75;5037576;28;20477;-70
2022/12/01 07:31:39;;;;;;;104.13;32.90;;;;;;;2.80;100.00;102802.03;5040596;28;20032;-68
2022/12/01 07:34:05;;;;;;;106.65;32.42;;;;;;;2.84;100.00;102810.97;5034950;28;20112;-68
2022/12/01 07:36:30;;;;;;;119.35;32.85;;;;;;;2.86;100.00;102814.59;5033956;28;20029;-68
2022/12/01 07:38:55;;;;;;;109.63;33.58;;;;;;;2.89;100.00;102817.47;5034678;28;20020;-69
2022/12/01 07:41:21;;;;;;;117.35;35.42;;;;;;;2.92;100.00;102822.00;5037252;28;20033;-69
2022/12/01 07:43:47;;;;;;;114.05;34.28;;;;;;;2.94;100.00;102821.31;5039126;28;20025;-68
2022/12/01 07:46:18;;;;;;;118.50;35.83;;;;;;;2.98;100.00;102831.16;5039019;28;20029;-69
2022/12/01 07:48:44;;;;;;;142.05;39.70;;;;;;;3.01;100.00;102828.84;5051890;28;20063;-68
2022/12/01 07:51:12;;;;;;;127.35;38.75;;;;;;;3.06;100.00;102836.09;5013639;28;20065;-69
2022/12/01 07:53:38;;;;;;;129.57;35.30;;;;;;;3.09;100.00;102837.22;5013984;28;20034;-69
2022/12/01 07:56:04;;;;;;;124.70;33.58;;;;;;;3.13;100.00;102833.19;5012525;28;20037;-68
2022/12/01 07:58:29;;;;;;;130.43;35.45;;;;;;;3.18;100.00;102842.28;5022169;28;20025;-69
2022/12/01 08:00:55;;;;;;;131.55;35.78;;;;;;;3.22;100.00;102844.31;5014030;28;20053;-68
2022/12/01 08:03:20;;;;;;;131.90;36.55;;;;;;;3.26;100.00;102846.38;5013682;28;20041;-70
2022/12/01 08:05:58;;;;;;;120.38;35.55;;;;;;;3.33;100.00;102847.78;5017445;28;20028;-69
2022/12/01 08:08:24;;;;;;;128.15;36.35;;;;;;;3.35;100.00;102847.09;5013286;28;20026;-69
2022/12/01 08:10:50;;;;;;;139.38;38.08;;;;;;;3.41;100.00;102848.38;5012919;28;20029;-70
2022/12/01 08:13:15;;;;;;;136.63;36.25;;;;;;;3.44;100.00;102841.69;5014438;28;20062;-71
2022/12/01 08:15:41;;;;;;;133.60;36.83;;;;;;;3.49;100.00;102844.69;5026394;28;20021;-70
2022/12/01 08:18:06;;;;;;;128.48;37.63;;;;;;;3.52;100.00;102843.19;5030062;28;20028;-68
2022/12/01 08:20:31;;;;;;;138.48;37.33;;;;;;;3.58;100.00;102855.81;5031826;28;20021;-70
2022/12/01 08:23:00;;;;;;;129.93;37.22;;;;;;;3.61;100.00;102850.81;5032102;28;20025;-69
2022/12/01 08:25:26;;;;;;;145.02;38.53;;;;;;;3.67;100.00;102851.28;5034809;28;20021;-70
2022/12/01 08:27:52;;;;;;;131.05;39.35;;;;;;;3.71;100.00;102850.72;5033621;28;20394;-68
2022/12/01 08:30:17;;;;;;;129.43;37.47;;;;;;;3.77;100.00;102857.22;5035607;28;20021;-70
2022/12/01 08:32:43;;;;;;;132.45;37.75;;;;;;;3.81;100.00;102859.25;5034606;28;20021;-69
2022/12/01 08:35:09;;;;;;;126.85;36.25;;;;;;;3.89;100.00;102847.72;5040472;28;20032;-70
2022/12/01 08:37:35;;;;;;;157.63;37.50;;;;;;;3.96;100.00;102863.03;5037188;28;21345;-68
2022/12/01 08:40:01;;;;;;;142.70;39.22;;;;;;;4.04;100.00;102858.41;5037664;28;20029;-68
2022/12/01 08:42:26;;;;;;;124.40;38.38;;;;;;;4.13;100.00;102858.22;5036965;28;20026;-69
2022/12/01 08:44:51;;;;;;;140.85;39.13;;;;;;;4.20;100.00;102858.75;5025697;28;20049;-69
2022/12/01 08:47:17;;;;;;;146.80;38.30;;;;;;;4.24;100.00;102852.09;5034271;28;20041;-69
2022/12/01 08:49:42;;;;;;;134.93;37.42;;;;;;;4.29;100.00;102858.56;5023322;28;20076;-71
2022/12/01 08:52:07;;;;;;;142.23;38.78;;;;;;;4.37;100.00;102860.03;5027376;28;20050;-69
2022/12/01 08:54:33;;;;;;;132.40;40.00;;;;;;;4.42;100.00;102856.84;5029972;28;20035;-69
2022/12/01 08:56:58;;;;;;;141.63;39.67;;;;;;;4.47;100.00;102855.50;5016865;28;20033;-72
2022/12/01 08:59:23;;;;;;;139.23;39.60;;;;;;;4.51;100.00;102852.34;5025513;28;20410;-70
2022/12/01 09:01:51;;;;;;;125.57;37.10;;;;;;;4.57;100.00;102847.56;5012542;28;20129;-69
2022/12/01 09:04:22;;;;;;;123.70;37.22;;;;;;;4.60;100.00;102847.81;5024244;28;20112;-69
2022/12/01 09:06:49;;;;;;;135.82;37.67;;;;;;;4.65;100.00;102843.84;5031181;28;20416;-70
2022/12/01 09:09:27;;;;;;;132.70;38.30;;;;;;;4.71;100.00;102851.19;5026934;28;20022;-69
2022/12/01 09:11:54;;;;;;;118.72;37.50;;;;;;;4.77;100.00;102849.00;5019090;28;20075;-71
2022/12/01 09:14:21;;;;;;;127.47;38.22;;;;;;;4.84;100.00;102848.69;5028843;28;20064;-71
2022/12/01 09:16:51;;;;;;;118.85;37.80;;;;;;;4.90;100.00;102848.22;5013950;28;20038;-70
2022/12/01 09:19:18;;;;;;;126.28;38.55;;;;;;;4.98;100.00;102851.34;5012610;28;20034;-71
2022/12/01 09:21:44;;;;;;;132.48;36.95;;;;;;;5.04;100.00;102850.09;5020807;28;20061;-71
2022/12/01 09:24:11;;;;;;;119.97;34.97;;;;;;;5.11;100.00;102853.16;5018359;28;20103;-70
2022/12/01 09:26:36;;;;;;;112.20;36.75;;;;;;;5.15;100.00;102850.84;5027723;28;20025;-68
2022/12/01 09:29:05;;;;;;;124.00;37.88;;;;;;;5.26;100.00;102854.22;5011787;28;20140;-70
2022/12/01 09:31:31;;;;;;;117.85;37.70;;;;;;;5.38;100.00;102855.09;5011033;28;20525;-71
2022/12/01 09:34:04;;;;;;;121.53;38.92;;;;;;;5.53;100.00;102859.59;5026815;28;20083;-68
2022/12/01 09:36:32;;;;;;;115.60;38.40;;;;;;;5.68;100.00;102851.91;5031024;28;20033;-69
2022/12/01 09:38:58;;;;;;;120.82;36.08;;;;;;;5.80;100.00;102854.47;5030954;28;20025;-69
2022/12/01 09:41:32;;;;;;;110.72;35.72;;;;;;;5.87;100.00;102856.69;5031646;28;20025;-69
2022/12/01 09:44:01;;;;;;;98.30;34.92;;;;;;;5.80;100.00;102849.25;5030752;28;20026;-69
2022/12/01 09:46:36;;;;;;;109.47;35.33;;;;;;;5.87;100.00;102851.47;5029929;28;20030;-69
2022/12/01 09:49:03;;;;;;;105.65;35.33;;;;;;;5.89;100.00;102852.47;5024679;28;20041;-68
2022/12/01 09:51:29;;;;;;;101.97;35.28;;;;;;;5.86;100.00;102854.88;5032588;28;20037;-69
2022/12/01 09:53:58;;;;;;;97.03;34.20;;;;;;;5.86;100.00;102847.94;5032875;28;20099;-70
2022/12/01 09:56:35;;;;;;;94.80;34.17;;;;;;;5.84;100.00;102846.03;5025825;28;20033;-69
2022/12/01 09:59:06;;;;;;;91.20;33.40;;;;;;;5.87;100.00;102841.00;5023560;28;20029;-70
2022/12/01 10:01:43;;;;;;;95.05;32.38;;;;;;;5.96;100.00;102841.63;5025898;28;20114;-69
2022/12/01 10:04:34;;;;;;;94.82;33.97;;;;;;;5.99;100.00;102834.03;5033856;28;20083;-69
2022/12/01 10:07:04;;;;;;;85.50;33.00;;;;;;;6.05;100.00;102836.13;5035717;28;20163;-69
2022/12/01 10:09:42;;;;;;;90.25;32.35;;;;;;;6.23;100.00;102837.38;5030299;28;20034;-69
2022/12/01 10:12:21;;;;;;;86.13;31.88;;;;;;;6.63;100.00;102836.47;5023846;28;20025;-71
2022/12/01 10:14:47;;;;;;;86.95;34.17;;;;;;;6.84;100.00;102829.13;5027919;28;20500;-69
2022/12/01 10:17:50;;;;;;;70.18;29.02;;;;;;;7.03;100.00;102839.03;5034802;28;20029;-69
2022/12/01 10:20:24;;;;;;;75.88;31.88;;;;;;;7.31;100.00;102832.00;5032622;28;20056;-69
2022/12/01 10:22:58;;;;;;;72.70;29.55;;;;;;;7.53;100.00;102834.25;5034244;28;20101;-70
2022/12/01 10:25:36;;;;;;;64.95;27.85;;;;;;;7.72;100.00;102831.94;5028150;28;20029;-70
2022/12/01 10:28:18;;;;;;;62.92;28.52;;;;;;;7.98;100.00;102840.44;5018279;28;20024;-71
2022/12/01 10:30:49;;;;;;;67.40;30.13;;;;;;;8.17;100.00;102841.53;5015063;28;20118;-69
2022/12/01 10:33:43;;;;;;;63.70;28.48;;;;;;;8.40;100.00;102838.53;5015055;28;20394;-69
2022/12/01 10:36:09;;;;;;;68.27;29.83;;;;;;;8.67;100.00;102827.84;5015680;28;20029;-68
2022/12/01 10:38:37;;;;;;;57.97;27.45;;;;;;;8.69;100.00;102834.06;5015063;28;20382;-70
2022/12/01 10:41:10;;;;;;;60.83;26.92;;;;;;;8.93;100.00;102834.53;5015246;28;20018;-69
2022/12/01 10:43:50;;;;;;;66.93;27.90;;;;;;;8.96;100.00;102838.16;5020794;28;20474;-68
2022/12/01 10:46:34;;;;;;;62.53;28.17;;;;;;;9.08;100.00;102838.81;5020412;28;20088;-71
2022/12/01 10:49:07;;;;;;;63.83;28.00;;;;;;;9.24;100.00;102830.06;5035225;28;20037;-69
2022/12/01 10:52:10;;;;;;;66.80;29.85;;;;;;;9.35;100.00;102838.53;5028910;28;20037;-71
2022/12/01 10:54:38;;;;;;;62.38;27.25;;;;;;;9.56;100.00;102839.69;5010681;28;20052;-71
2022/12/01 10:57:06;;;;;;;58.45;28.95;;;;;;;9.67;100.00;102829.72;5034293;28;20141;-70
2022/12/01 10:59:48;;;;;;;55.38;26.67;;;;;;;9.76;100.00;102837.16;5021352;28;20033;-70
2022/12/01 11:02:18;;;;;;;54.05;26.23;;;;;;;9.97;100.00;102840.03;5015194;28;20092;-70
2022/12/01 11:05:17;;;;;;;54.35;25.55;;;;;;;9.78;100.00;102835.53;5016511;28;20548;-70
2022/12/01 11:07:46;;;;;;;56.13;24.67;;;;;;;9.81;100.00;102834.78;5014373;28;20025;-68
2022/12/01 11:10:16;;;;;;;59.55;27.48;;;;;;;9.43;100.00;102826.69;5013741;28;20038;-69
2022/12/01 11:12:45;;;;;;;55.42;25.95;;;;;;;9.20;100.00;102823.72;5027285;28;21853;-70
2022/12/01 11:15:20;;;;;;;58.72;26.60;;;;;;;8.99;100.00;102827.81;5025249;28;20044;-70
2022/12/01 11:17:46;;;;;;;58.28;25.30;;;;;;;9.07;100.00;102822.16;5018452;28;20546;-69
2022/12/01 11:20:38;;;;;;;56.05;25.92;;;;;;;9.43;100.00;102814.44;5014208;28;20071;-69
2022/12/01 11:23:28;;;;;;;49.95;24.83;;;;;;;9.78;100.00;102819.78;5015872;28;20061;-70